Aérodrome :
LOGIN :

S'inscrire | Disclaimer

   EN    FR    IT 

 










Légende :    VFR   VFR Marginal   IFR   IFR Intensif   IFR Très Intensif
Visi : 
Plafond : 
>= 8 km
>= 3000ft
5 à 8 km
1000 à 3000 ft
1500m à 5 km
500 à 1000 ft
800 à 1500m
200 à 500 ft
< 800m
< 200 ft
Symboles :   Orages  Brouillard  Fortes neiges  Fortes précipitations  Vent > 20 kt
SIGMETs :   Divers  Orages  Givrage  Turbulence  Onde Orograph.  Cendres Volcan.






- Altitude de l'aérodrome : 147 ft
- Code IATA : DUS


EDDL - Düsseldorf Int.

DERNIER METAR :
  • 172050Z 22015KT 9999 FEW028 BKN034 08/04 Q1015 NOSIG

METARs EXPIRÉS :
  • 172020Z 23011KT 9999 VCSH FEW025CB SCT032 BKN038 08/04 Q1015 NOSIG
  • 171950Z 22011KT 9999 -SHRA FEW022 SCT030CB BKN036 07/04 Q1014 BECMG 23015G25KT
  • 171920Z 26005KT 9999 -SHRA FEW024 SCT030CB BKN038 07/05 Q1015 BECMG 23015G25KT
  • 171850Z 23004KT 190V280 9999 -RA FEW020 SCT048 07/04 Q1014 TEMPO 23015G25KT
  • 171820Z 26012G22KT 220V300 9999 -SHRA FEW020 BKN038CB 07/04 Q1014 TEMPO 23020G30KT SHRA

TAF TAF EDDL
Valide du 17 à 18h jusqu'au 19 à 00h UTC


171700Z 1718/1824 23015G25KT 9999 SCT030
TEMPO 1718/1804 24020G30KT SHRA BKN020CB
TEMPO 1809/1816 23020G30KT SHRA BKN020CB
PROB30
TEMPO 1816/1824 21020G30KT



MET'MAP, la Météo Aéronautique d'un coup d'oeil ! - Copyright ORBIFLY Décembre 2007 - Disclaimer

ORBIFLY MET'MAP TEAM :

Programmation & Développement : Alexandra Zaïnal
Sur une idée originale de : Baudouin d'Aumeries
Assistance à la programmation : Marc-Olivier Méhu
Soutien technique & logistique : Manuel Goepfert

Contact : metmap@orbifly.com




SOURCES & CREDITS :

   NOAA